sensor_id;sensor_type;location;lat;lon;timestamp;P1;durP1;ratioP1;P2;durP2;ratioP2
72882;SDS011;61017;37.812;-122.286;2023-08-08T00:01:00;16.38;;;5.00;;
72882;SDS011;61017;37.812;-122.286;2023-08-08T00:02:34;12.00;;;4.60;;
72882;SDS011;61017;37.812;-122.286;2023-08-08T00:04:06;14.65;;;5.03;;
72882;SDS011;61017;37.812;-122.286;2023-08-08T00:05:37;17.15;;;5.30;;
72882;SDS011;61017;37.812;-122.286;2023-08-08T00:07:09;14.55;;;4.78;;
72882;SDS011;61017;37.812;-122.286;2023-08-08T00:08:41;10.65;;;4.30;;
72882;SDS011;61017;37.812;-122.286;2023-08-08T00:10:12;13.25;;;5.30;;
72882;SDS011;61017;37.812;-122.286;2023-08-08T00:11:44;13.90;;;4.70;;
72882;SDS011;61017;37.812;-122.286;2023-08-08T00:13:16;14.77;;;4.80;;
72882;SDS011;61017;37.812;-122.286;2023-08-08T00:14:48;13.13;;;4.70;;
72882;SDS011;61017;37.812;-122.286;2023-08-08T00:16:20;13.27;;;5.10;;
72882;SDS011;61017;37.812;-122.286;2023-08-08T00:17:51;15.80;;;4.78;;
72882;SDS011;61017;37.812;-122.286;2023-08-08T00:19:23;13.55;;;4.43;;
72882;SDS011;61017;37.812;-122.286;2023-08-08T00:20:55;15.38;;;4.93;;
72882;SDS011;61017;37.812;-122.286;2023-08-08T00:22:26;16.50;;;5.07;;
72882;SDS011;61017;37.812;-122.286;2023-08-08T00:23:58;12.57;;;4.38;;
72882;SDS011;61017;37.812;-122.286;2023-08-08T00:25:29;14.15;;;4.60;;
72882;SDS011;61017;37.812;-122.286;2023-08-08T00:27:01;14.95;;;4.65;;
72882;SDS011;61017;37.812;-122.286;2023-08-08T00:28:33;14.35;;;4.60;;
72882;SDS011;61017;37.812;-122.286;2023-08-08T00:30:04;14.45;;;4.70;;
72882;SDS011;61017;37.812;-122.286;2023-08-08T00:31:36;13.40;;;4.63;;
72882;SDS011;61017;37.812;-122.286;2023-08-08T00:33:08;12.15;;;4.50;;
72882;SDS011;61017;37.812;-122.286;2023-08-08T00:34:40;12.95;;;4.50;;
72882;SDS011;61017;37.812;-122.286;2023-08-08T00:36:11;14.07;;;4.78;;
72882;SDS011;61017;37.812;-122.286;2023-08-08T00:37:43;12.93;;;4.60;;
72882;SDS011;61017;37.812;-122.286;2023-08-08T00:39:14;14.52;;;4.75;;
72882;SDS011;61017;37.812;-122.286;2023-08-08T00:40:46;12.00;;;4.28;;
72882;SDS011;61017;37.812;-122.286;2023-08-08T00:42:18;13.90;;;4.65;;
72882;SDS011;61017;37.812;-122.286;2023-08-08T00:43:49;14.05;;;4.50;;
72882;SDS011;61017;37.812;-122.286;2023-08-08T00:45:21;13.73;;;4.72;;
72882;SDS011;61017;37.812;-122.286;2023-08-08T00:46:52;13.95;;;4.82;;
72882;SDS011;61017;37.812;-122.286;2023-08-08T00:48:24;10.27;;;4.50;;
72882;SDS011;61017;37.812;-122.286;2023-08-08T00:49:56;14.70;;;5.13;;
72882;SDS011;61017;37.812;-122.286;2023-08-08T00:51:28;12.50;;;4.70;;
72882;SDS011;61017;37.812;-122.286;2023-08-08T00:53:00;11.82;;;4.53;;
72882;SDS011;61017;37.812;-122.286;2023-08-08T00:54:32;12.13;;;4.70;;
72882;SDS011;61017;37.812;-122.286;2023-08-08T00:56:04;15.95;;;4.90;;
72882;SDS011;61017;37.812;-122.286;2023-08-08T00:57:36;14.13;;;5.13;;
72882;SDS011;61017;37.812;-122.286;2023-08-08T00:59:08;12.60;;;4.17;;
72882;SDS011;61017;37.812;-122.286;2023-08-08T01:00:41;13.70;;;4.90;;
72882;SDS011;61017;37.812;-122.286;2023-08-08T01:02:12;12.00;;;4.63;;
72882;SDS011;61017;37.812;-122.286;2023-08-08T01:03:44;12.50;;;4.90;;
72882;SDS011;61017;37.812;-122.286;2023-08-08T01:05:16;13.57;;;5.03;;
72882;SDS011;61017;37.812;-122.286;2023-08-08T01:08:21;11.88;;;4.85;;
72882;SDS011;61017;37.812;-122.286;2023-08-08T01:10:17;12.65;;;4.47;;
72882;SDS011;61017;37.812;-122.286;2023-08-08T01:11:56;11.35;;;5.15;;
72882;SDS011;61017;37.812;-122.286;2023-08-08T01:13:28;12.10;;;4.57;;
72882;SDS011;61017;37.812;-122.286;2023-08-08T01:15:02;14.43;;;5.10;;
72882;SDS011;61017;37.812;-122.286;2023-08-08T01:16:39;13.68;;;5.30;;
72882;SDS011;61017;37.812;-122.286;2023-08-08T01:18:13;11.52;;;5.03;;
72882;SDS011;61017;37.812;-122.286;2023-08-08T01:21:17;11.82;;;5.03;;
72882;SDS011;61017;37.812;-122.286;2023-08-08T01:22:51;11.57;;;4.70;;
72882;SDS011;61017;37.812;-122.286;2023-08-08T01:24:34;11.75;;;4.90;;
72882;SDS011;61017;37.812;-122.286;2023-08-08T01:26:06;10.57;;;4.80;;
72882;SDS011;61017;37.812;-122.286;2023-08-08T01:27:38;12.57;;;4.63;;
72882;SDS011;61017;37.812;-122.286;2023-08-08T01:29:10;11.75;;;4.75;;
72882;SDS011;61017;37.812;-122.286;2023-08-08T01:30:43;10.85;;;4.65;;
72882;SDS011;61017;37.812;-122.286;2023-08-08T01:32:17;12.88;;;4.75;;
72882;SDS011;61017;37.812;-122.286;2023-08-08T01:33:48;11.07;;;4.53;;
72882;SDS011;61017;37.812;-122.286;2023-08-08T01:35:20;12.90;;;4.93;;
72882;SDS011;61017;37.812;-122.286;2023-08-08T01:36:57;10.23;;;4.38;;
72882;SDS011;61017;37.812;-122.286;2023-08-08T01:38:42;11.07;;;4.63;;
72882;SDS011;61017;37.812;-122.286;2023-08-08T01:40:17;12.77;;;4.32;;
72882;SDS011;61017;37.812;-122.286;2023-08-08T01:41:50;11.32;;;4.38;;
72882;SDS011;61017;37.812;-122.286;2023-08-08T01:43:23;15.18;;;5.00;;
72882;SDS011;61017;37.812;-122.286;2023-08-08T01:44:57;11.88;;;4.65;;
72882;SDS011;61017;37.812;-122.286;2023-08-08T01:46:29;12.70;;;4.75;;
72882;SDS011;61017;37.812;-122.286;2023-08-08T01:48:05;9.25;;;4.80;;
72882;SDS011;61017;37.812;-122.286;2023-08-08T01:49:38;11.35;;;4.45;;
72882;SDS011;61017;37.812;-122.286;2023-08-08T01:51:10;11.60;;;4.45;;
72882;SDS011;61017;37.812;-122.286;2023-08-08T01:52:41;10.27;;;4.28;;
72882;SDS011;61017;37.812;-122.286;2023-08-08T01:54:13;13.20;;;3.80;;
72882;SDS011;61017;37.812;-122.286;2023-08-08T01:55:44;12.80;;;3.88;;
72882;SDS011;61017;37.812;-122.286;2023-08-08T01:57:16;10.13;;;3.30;;
72882;SDS011;61017;37.812;-122.286;2023-08-08T01:58:48;15.73;;;3.85;;
72882;SDS011;61017;37.812;-122.286;2023-08-08T02:00:19;11.45;;;3.40;;
72882;SDS011;61017;37.812;-122.286;2023-08-08T02:01:51;11.57;;;3.88;;
72882;SDS011;61017;37.812;-122.286;2023-08-08T02:03:23;11.18;;;3.28;;
72882;SDS011;61017;37.812;-122.286;2023-08-08T02:04:54;12.40;;;3.30;;
72882;SDS011;61017;37.812;-122.286;2023-08-08T02:06:26;11.50;;;3.33;;
72882;SDS011;61017;37.812;-122.286;2023-08-08T02:07:58;15.50;;;3.50;;
72882;SDS011;61017;37.812;-122.286;2023-08-08T02:09:30;10.60;;;3.17;;
72882;SDS011;61017;37.812;-122.286;2023-08-08T02:11:04;10.98;;;3.45;;
72882;SDS011;61017;37.812;-122.286;2023-08-08T02:12:35;7.72;;;2.83;;
72882;SDS011;61017;37.812;-122.286;2023-08-08T02:14:07;9.77;;;3.00;;
72882;SDS011;61017;37.812;-122.286;2023-08-08T02:15:38;7.35;;;2.70;;
72882;SDS011;61017;37.812;-122.286;2023-08-08T02:17:10;10.52;;;3.50;;
72882;SDS011;61017;37.812;-122.286;2023-08-08T02:19:02;7.85;;;2.85;;
72882;SDS011;61017;37.812;-122.286;2023-08-08T02:20:33;9.15;;;3.05;;
72882;SDS011;61017;37.812;-122.286;2023-08-08T02:22:05;8.27;;;3.03;;
72882;SDS011;61017;37.812;-122.286;2023-08-08T02:23:37;8.68;;;3.33;;
72882;SDS011;61017;37.812;-122.286;2023-08-08T02:25:08;9.80;;;2.67;;
72882;SDS011;61017;37.812;-122.286;2023-08-08T02:26:40;9.55;;;2.90;;
72882;SDS011;61017;37.812;-122.286;2023-08-08T02:28:12;6.97;;;2.90;;
72882;SDS011;61017;37.812;-122.286;2023-08-08T02:29:44;9.07;;;3.10;;
72882;SDS011;61017;37.812;-122.286;2023-08-08T02:31:15;8.25;;;2.83;;
72882;SDS011;61017;37.812;-122.286;2023-08-08T02:32:47;7.47;;;2.75;;
72882;SDS011;61017;37.812;-122.286;2023-08-08T02:34:19;8.38;;;2.90;;
72882;SDS011;61017;37.812;-122.286;2023-08-08T02:35:51;10.57;;;2.88;;
72882;SDS011;61017;37.812;-122.286;2023-08-08T02:37:22;9.82;;;2.58;;
72882;SDS011;61017;37.812;-122.286;2023-08-08T02:38:54;9.15;;;2.78;;
72882;SDS011;61017;37.812;-122.286;2023-08-08T02:40:26;7.55;;;2.58;;
72882;SDS011;61017;37.812;-122.286;2023-08-08T02:41:57;7.20;;;2.75;;
72882;SDS011;61017;37.812;-122.286;2023-08-08T02:43:29;10.45;;;2.55;;
72882;SDS011;61017;37.812;-122.286;2023-08-08T02:45:01;10.73;;;3.10;;
72882;SDS011;61017;37.812;-122.286;2023-08-08T02:46:33;7.43;;;2.85;;
72882;SDS011;61017;37.812;-122.286;2023-08-08T02:48:04;8.10;;;2.88;;
72882;SDS011;61017;37.812;-122.286;2023-08-08T02:49:36;8.70;;;2.72;;
72882;SDS011;61017;37.812;-122.286;2023-08-08T02:51:08;10.20;;;2.67;;
72882;SDS011;61017;37.812;-122.286;2023-08-08T02:54:12;6.75;;;2.33;;
72882;SDS011;61017;37.812;-122.286;2023-08-08T02:55:44;10.10;;;2.88;;
72882;SDS011;61017;37.812;-122.286;2023-08-08T02:57:16;11.43;;;2.80;;
72882;SDS011;61017;37.812;-122.286;2023-08-08T02:58:47;8.98;;;2.70;;
72882;SDS011;61017;37.812;-122.286;2023-08-08T03:00:22;9.52;;;3.15;;
72882;SDS011;61017;37.812;-122.286;2023-08-08T03:01:53;6.32;;;2.45;;
72882;SDS011;61017;37.812;-122.286;2023-08-08T03:03:25;9.50;;;3.05;;
72882;SDS011;61017;37.812;-122.286;2023-08-08T03:04:57;10.35;;;3.10;;
72882;SDS011;61017;37.812;-122.286;2023-08-08T03:06:28;7.78;;;2.80;;
72882;SDS011;61017;37.812;-122.286;2023-08-08T03:08:00;10.25;;;3.33;;
72882;SDS011;61017;37.812;-122.286;2023-08-08T03:09:32;9.63;;;2.90;;
72882;SDS011;61017;37.812;-122.286;2023-08-08T03:11:03;8.23;;;3.38;;
72882;SDS011;61017;37.812;-122.286;2023-08-08T03:12:35;5.68;;;2.55;;
72882;SDS011;61017;37.812;-122.286;2023-08-08T03:14:07;6.57;;;2.55;;
72882;SDS011;61017;37.812;-122.286;2023-08-08T03:15:39;8.38;;;2.72;;
72882;SDS011;61017;37.812;-122.286;2023-08-08T03:17:30;8.13;;;2.80;;
72882;SDS011;61017;37.812;-122.286;2023-08-08T03:19:02;7.72;;;2.78;;
72882;SDS011;61017;37.812;-122.286;2023-08-08T03:20:34;7.90;;;3.15;;
72882;SDS011;61017;37.812;-122.286;2023-08-08T03:22:05;7.47;;;3.00;;
72882;SDS011;61017;37.812;-122.286;2023-08-08T03:23:37;7.65;;;2.80;;
72882;SDS011;61017;37.812;-122.286;2023-08-08T03:25:08;7.78;;;3.05;;
72882;SDS011;61017;37.812;-122.286;2023-08-08T03:26:40;8.02;;;2.88;;
72882;SDS011;61017;37.812;-122.286;2023-08-08T03:28:12;7.68;;;3.00;;
72882;SDS011;61017;37.812;-122.286;2023-08-08T03:29:43;7.97;;;3.20;;
72882;SDS011;61017;37.812;-122.286;2023-08-08T03:31:15;9.65;;;3.08;;
72882;SDS011;61017;37.812;-122.286;2023-08-08T03:32:47;7.90;;;2.90;;
72882;SDS011;61017;37.812;-122.286;2023-08-08T03:34:19;5.45;;;2.80;;
72882;SDS011;61017;37.812;-122.286;2023-08-08T03:35:50;6.35;;;2.95;;
72882;SDS011;61017;37.812;-122.286;2023-08-08T03:37:24;9.57;;;3.10;;
72882;SDS011;61017;37.812;-122.286;2023-08-08T03:38:58;6.82;;;2.67;;
72882;SDS011;61017;37.812;-122.286;2023-08-08T03:40:30;7.38;;;2.90;;
72882;SDS011;61017;37.812;-122.286;2023-08-08T03:42:02;8.77;;;2.70;;
72882;SDS011;61017;37.812;-122.286;2023-08-08T03:43:33;5.57;;;2.60;;
72882;SDS011;61017;37.812;-122.286;2023-08-08T03:45:05;8.27;;;3.10;;
72882;SDS011;61017;37.812;-122.286;2023-08-08T03:46:37;6.93;;;2.47;;
72882;SDS011;61017;37.812;-122.286;2023-08-08T03:48:09;5.13;;;2.60;;
72882;SDS011;61017;37.812;-122.286;2023-08-08T03:49:40;4.72;;;2.30;;
72882;SDS011;61017;37.812;-122.286;2023-08-08T03:51:12;6.47;;;2.60;;
72882;SDS011;61017;37.812;-122.286;2023-08-08T03:52:43;6.43;;;2.60;;
72882;SDS011;61017;37.812;-122.286;2023-08-08T03:54:15;7.63;;;2.88;;
72882;SDS011;61017;37.812;-122.286;2023-08-08T03:55:47;6.30;;;2.60;;
72882;SDS011;61017;37.812;-122.286;2023-08-08T03:57:19;5.63;;;2.60;;
72882;SDS011;61017;37.812;-122.286;2023-08-08T03:58:50;5.90;;;2.30;;
72882;SDS011;61017;37.812;-122.286;2023-08-08T04:00:22;5.07;;;2.40;;
72882;SDS011;61017;37.812;-122.286;2023-08-08T04:01:54;5.05;;;2.28;;
72882;SDS011;61017;37.812;-122.286;2023-08-08T04:03:25;6.47;;;2.50;;
72882;SDS011;61017;37.812;-122.286;2023-08-08T04:04:57;4.70;;;2.50;;
72882;SDS011;61017;37.812;-122.286;2023-08-08T04:06:28;4.07;;;2.10;;
72882;SDS011;61017;37.812;-122.286;2023-08-08T04:08:00;7.25;;;2.28;;
72882;SDS011;61017;37.812;-122.286;2023-08-08T04:09:32;6.25;;;2.30;;
72882;SDS011;61017;37.812;-122.286;2023-08-08T04:11:03;8.07;;;2.53;;
72882;SDS011;61017;37.812;-122.286;2023-08-08T04:12:35;5.35;;;2.20;;
72882;SDS011;61017;37.812;-122.286;2023-08-08T04:14:06;6.63;;;2.38;;
72882;SDS011;61017;37.812;-122.286;2023-08-08T04:15:38;4.63;;;2.40;;
72882;SDS011;61017;37.812;-122.286;2023-08-08T04:17:09;5.47;;;2.17;;
72882;SDS011;61017;37.812;-122.286;2023-08-08T04:18:43;4.57;;;2.05;;
72882;SDS011;61017;37.812;-122.286;2023-08-08T04:20:15;4.60;;;2.17;;
72882;SDS011;61017;37.812;-122.286;2023-08-08T04:21:46;6.07;;;2.25;;
72882;SDS011;61017;37.812;-122.286;2023-08-08T04:23:18;3.45;;;1.90;;
72882;SDS011;61017;37.812;-122.286;2023-08-08T04:24:49;4.43;;;2.10;;
72882;SDS011;61017;37.812;-122.286;2023-08-08T04:26:21;4.35;;;1.90;;
72882;SDS011;61017;37.812;-122.286;2023-08-08T04:27:53;4.75;;;2.10;;
72882;SDS011;61017;37.812;-122.286;2023-08-08T04:29:24;5.22;;;2.22;;
72882;SDS011;61017;37.812;-122.286;2023-08-08T04:30:56;5.22;;;2.30;;
72882;SDS011;61017;37.812;-122.286;2023-08-08T04:32:27;5.38;;;2.13;;
72882;SDS011;61017;37.812;-122.286;2023-08-08T04:33:59;6.13;;;2.15;;
72882;SDS011;61017;37.812;-122.286;2023-08-08T04:35:31;4.90;;;2.15;;
72882;SDS011;61017;37.812;-122.286;2023-08-08T04:37:03;4.43;;;1.98;;
72882;SDS011;61017;37.812;-122.286;2023-08-08T04:38:35;5.70;;;2.10;;
72882;SDS011;61017;37.812;-122.286;2023-08-08T04:40:07;4.93;;;2.13;;
72882;SDS011;61017;37.812;-122.286;2023-08-08T04:41:39;4.63;;;1.90;;
72882;SDS011;61017;37.812;-122.286;2023-08-08T04:43:10;4.07;;;2.15;;
72882;SDS011;61017;37.812;-122.286;2023-08-08T04:44:42;6.03;;;2.40;;
72882;SDS011;61017;37.812;-122.286;2023-08-08T04:46:13;5.80;;;2.20;;
72882;SDS011;61017;37.812;-122.286;2023-08-08T04:47:45;5.32;;;2.05;;
72882;SDS011;61017;37.812;-122.286;2023-08-08T04:49:17;6.35;;;2.20;;
72882;SDS011;61017;37.812;-122.286;2023-08-08T04:50:48;8.32;;;2.20;;
72882;SDS011;61017;37.812;-122.286;2023-08-08T04:52:20;7.18;;;2.55;;
72882;SDS011;61017;37.812;-122.286;2023-08-08T04:53:51;11.32;;;2.47;;
72882;SDS011;61017;37.812;-122.286;2023-08-08T04:55:23;11.45;;;2.63;;
72882;SDS011;61017;37.812;-122.286;2023-08-08T04:56:55;7.05;;;2.78;;
72882;SDS011;61017;37.812;-122.286;2023-08-08T04:58:26;12.07;;;2.92;;
72882;SDS011;61017;37.812;-122.286;2023-08-08T04:59:58;10.52;;;2.53;;
72882;SDS011;61017;37.812;-122.286;2023-08-08T05:01:30;9.73;;;2.60;;
72882;SDS011;61017;37.812;-122.286;2023-08-08T05:03:01;12.93;;;3.00;;
72882;SDS011;61017;37.812;-122.286;2023-08-08T05:04:33;14.23;;;2.50;;
72882;SDS011;61017;37.812;-122.286;2023-08-08T05:06:04;10.77;;;2.58;;
72882;SDS011;61017;37.812;-122.286;2023-08-08T05:07:39;14.10;;;3.05;;
72882;SDS011;61017;37.812;-122.286;2023-08-08T05:09:11;9.15;;;2.60;;
72882;SDS011;61017;37.812;-122.286;2023-08-08T05:10:42;9.65;;;2.55;;
72882;SDS011;61017;37.812;-122.286;2023-08-08T05:12:14;10.57;;;2.70;;
72882;SDS011;61017;37.812;-122.286;2023-08-08T05:13:45;8.13;;;2.47;;
72882;SDS011;61017;37.812;-122.286;2023-08-08T05:15:17;9.60;;;2.47;;
72882;SDS011;61017;37.812;-122.286;2023-08-08T05:16:50;8.93;;;2.80;;
72882;SDS011;61017;37.812;-122.286;2023-08-08T05:18:21;8.57;;;2.50;;
72882;SDS011;61017;37.812;-122.286;2023-08-08T05:19:53;8.98;;;2.55;;
72882;SDS011;61017;37.812;-122.286;2023-08-08T05:21:25;9.52;;;2.70;;
72882;SDS011;61017;37.812;-122.286;2023-08-08T05:22:56;9.13;;;2.70;;
72882;SDS011;61017;37.812;-122.286;2023-08-08T05:24:28;8.48;;;2.40;;
72882;SDS011;61017;37.812;-122.286;2023-08-08T05:25:59;5.70;;;2.20;;
72882;SDS011;61017;37.812;-122.286;2023-08-08T05:27:31;7.63;;;2.40;;
72882;SDS011;61017;37.812;-122.286;2023-08-08T05:29:03;6.28;;;2.30;;
72882;SDS011;61017;37.812;-122.286;2023-08-08T05:30:35;4.10;;;2.10;;
72882;SDS011;61017;37.812;-122.286;2023-08-08T05:32:07;6.75;;;2.20;;
72882;SDS011;61017;37.812;-122.286;2023-08-08T05:33:39;7.38;;;2.45;;
72882;SDS011;61017;37.812;-122.286;2023-08-08T05:35:10;6.47;;;2.53;;
72882;SDS011;61017;37.812;-122.286;2023-08-08T05:36:42;7.43;;;2.38;;
72882;SDS011;61017;37.812;-122.286;2023-08-08T05:38:14;7.53;;;2.30;;
72882;SDS011;61017;37.812;-122.286;2023-08-08T05:39:45;8.57;;;2.50;;
72882;SDS011;61017;37.812;-122.286;2023-08-08T05:41:17;6.55;;;2.50;;
72882;SDS011;61017;37.812;-122.286;2023-08-08T05:42:48;6.38;;;2.33;;
72882;SDS011;61017;37.812;-122.286;2023-08-08T05:44:20;8.88;;;2.33;;
72882;SDS011;61017;37.812;-122.286;2023-08-08T05:45:51;4.38;;;2.10;;
72882;SDS011;61017;37.812;-122.286;2023-08-08T05:47:23;7.05;;;2.55;;
72882;SDS011;61017;37.812;-122.286;2023-08-08T05:48:54;5.85;;;2.30;;
72882;SDS011;61017;37.812;-122.286;2023-08-08T05:50:26;5.35;;;2.40;;
72882;SDS011;61017;37.812;-122.286;2023-08-08T05:51:58;3.80;;;2.17;;
72882;SDS011;61017;37.812;-122.286;2023-08-08T05:53:30;4.80;;;2.13;;
72882;SDS011;61017;37.812;-122.286;2023-08-08T05:55:02;4.75;;;2.25;;
72882;SDS011;61017;37.812;-122.286;2023-08-08T05:56:37;6.10;;;2.13;;
72882;SDS011;61017;37.812;-122.286;2023-08-08T05:58:09;4.85;;;2.30;;
72882;SDS011;61017;37.812;-122.286;2023-08-08T05:59:40;8.25;;;2.47;;
72882;SDS011;61017;37.812;-122.286;2023-08-08T06:01:12;7.43;;;2.25;;
72882;SDS011;61017;37.812;-122.286;2023-08-08T06:02:44;4.43;;;2.17;;
72882;SDS011;61017;37.812;-122.286;2023-08-08T06:04:16;5.45;;;2.22;;
72882;SDS011;61017;37.812;-122.286;2023-08-08T06:05:47;4.60;;;2.10;;
72882;SDS011;61017;37.812;-122.286;2023-08-08T06:07:19;5.32;;;2.10;;
72882;SDS011;61017;37.812;-122.286;2023-08-08T06:08:51;6.28;;;2.20;;
72882;SDS011;61017;37.812;-122.286;2023-08-08T06:10:23;5.47;;;2.47;;
72882;SDS011;61017;37.812;-122.286;2023-08-08T06:11:54;4.97;;;2.28;;
72882;SDS011;61017;37.812;-122.286;2023-08-08T06:13:26;5.85;;;2.08;;
72882;SDS011;61017;37.812;-122.286;2023-08-08T06:14:57;5.43;;;2.00;;
72882;SDS011;61017;37.812;-122.286;2023-08-08T06:16:29;4.60;;;1.90;;
72882;SDS011;61017;37.812;-122.286;2023-08-08T06:18:00;5.78;;;2.30;;
72882;SDS011;61017;37.812;-122.286;2023-08-08T06:19:32;6.32;;;2.50;;
72882;SDS011;61017;37.812;-122.286;2023-08-08T06:21:03;4.43;;;2.10;;
72882;SDS011;61017;37.812;-122.286;2023-08-08T06:22:36;5.45;;;2.25;;
72882;SDS011;61017;37.812;-122.286;2023-08-08T06:24:07;6.32;;;2.38;;
72882;SDS011;61017;37.812;-122.286;2023-08-08T06:25:39;4.53;;;2.13;;
72882;SDS011;61017;37.812;-122.286;2023-08-08T06:27:12;3.83;;;1.88;;
72882;SDS011;61017;37.812;-122.286;2023-08-08T06:30:15;4.50;;;2.00;;
72882;SDS011;61017;37.812;-122.286;2023-08-08T06:31:46;5.03;;;2.20;;
72882;SDS011;61017;37.812;-122.286;2023-08-08T06:33:19;5.70;;;2.33;;
72882;SDS011;61017;37.812;-122.286;2023-08-08T06:34:51;5.50;;;2.30;;
72882;SDS011;61017;37.812;-122.286;2023-08-08T06:36:22;4.35;;;2.10;;
72882;SDS011;61017;37.812;-122.286;2023-08-08T06:37:54;5.03;;;2.28;;
72882;SDS011;61017;37.812;-122.286;2023-08-08T06:39:25;4.03;;;2.10;;
72882;SDS011;61017;37.812;-122.286;2023-08-08T06:40:57;5.32;;;2.17;;
72882;SDS011;61017;37.812;-122.286;2023-08-08T06:42:29;4.32;;;1.98;;
72882;SDS011;61017;37.812;-122.286;2023-08-08T06:44:00;3.47;;;1.95;;
72882;SDS011;61017;37.812;-122.286;2023-08-08T06:45:32;4.78;;;2.40;;
72882;SDS011;61017;37.812;-122.286;2023-08-08T06:47:03;7.75;;;2.30;;
72882;SDS011;61017;37.812;-122.286;2023-08-08T06:48:35;3.13;;;2.00;;
72882;SDS011;61017;37.812;-122.286;2023-08-08T06:50:07;4.70;;;2.38;;
72882;SDS011;61017;37.812;-122.286;2023-08-08T06:51:38;3.40;;;1.90;;
72882;SDS011;61017;37.812;-122.286;2023-08-08T06:54:42;5.13;;;2.30;;
72882;SDS011;61017;37.812;-122.286;2023-08-08T06:56:14;3.63;;;2.05;;
72882;SDS011;61017;37.812;-122.286;2023-08-08T06:57:46;4.22;;;2.30;;
72882;SDS011;61017;37.812;-122.286;2023-08-08T06:59:20;4.00;;;2.03;;
72882;SDS011;61017;37.812;-122.286;2023-08-08T07:00:52;3.92;;;2.10;;
72882;SDS011;61017;37.812;-122.286;2023-08-08T07:02:24;5.57;;;2.00;;
72882;SDS011;61017;37.812;-122.286;2023-08-08T07:03:55;3.20;;;2.05;;
72882;SDS011;61017;37.812;-122.286;2023-08-08T07:05:27;3.35;;;1.98;;
72882;SDS011;61017;37.812;-122.286;2023-08-08T07:06:59;5.00;;;2.10;;
72882;SDS011;61017;37.812;-122.286;2023-08-08T07:08:30;3.80;;;2.03;;
72882;SDS011;61017;37.812;-122.286;2023-08-08T07:11:34;3.75;;;1.80;;
72882;SDS011;61017;37.812;-122.286;2023-08-08T07:13:06;3.28;;;1.95;;
72882;SDS011;61017;37.812;-122.286;2023-08-08T07:14:38;3.50;;;1.95;;
72882;SDS011;61017;37.812;-122.286;2023-08-08T07:16:09;4.40;;;2.05;;
72882;SDS011;61017;37.812;-122.286;2023-08-08T07:17:41;4.05;;;2.13;;
72882;SDS011;61017;37.812;-122.286;2023-08-08T07:19:13;4.25;;;1.90;;
72882;SDS011;61017;37.812;-122.286;2023-08-08T07:20:44;3.28;;;1.92;;
72882;SDS011;61017;37.812;-122.286;2023-08-08T07:22:18;3.40;;;2.08;;
72882;SDS011;61017;37.812;-122.286;2023-08-08T07:23:51;3.30;;;1.70;;
72882;SDS011;61017;37.812;-122.286;2023-08-08T07:25:22;4.30;;;2.00;;
72882;SDS011;61017;37.812;-122.286;2023-08-08T07:26:55;4.03;;;2.30;;
72882;SDS011;61017;37.812;-122.286;2023-08-08T07:28:27;4.28;;;2.00;;
72882;SDS011;61017;37.812;-122.286;2023-08-08T07:29:58;3.58;;;1.73;;
72882;SDS011;61017;37.812;-122.286;2023-08-08T07:31:30;5.15;;;2.22;;
72882;SDS011;61017;37.812;-122.286;2023-08-08T07:33:01;4.38;;;2.10;;
72882;SDS011;61017;37.812;-122.286;2023-08-08T07:34:33;5.38;;;2.50;;
72882;SDS011;61017;37.812;-122.286;2023-08-08T07:36:04;4.10;;;1.95;;
72882;SDS011;61017;37.812;-122.286;2023-08-08T07:37:36;4.18;;;2.20;;
72882;SDS011;61017;37.812;-122.286;2023-08-08T07:39:07;3.55;;;1.98;;
72882;SDS011;61017;37.812;-122.286;2023-08-08T07:40:39;4.35;;;2.03;;
72882;SDS011;61017;37.812;-122.286;2023-08-08T07:42:10;4.65;;;2.33;;
72882;SDS011;61017;37.812;-122.286;2023-08-08T07:43:42;5.38;;;2.33;;
72882;SDS011;61017;37.812;-122.286;2023-08-08T07:45:14;3.00;;;1.90;;
72882;SDS011;61017;37.812;-122.286;2023-08-08T07:46:45;3.35;;;1.70;;
72882;SDS011;61017;37.812;-122.286;2023-08-08T07:48:17;3.42;;;2.00;;
72882;SDS011;61017;37.812;-122.286;2023-08-08T07:49:48;3.97;;;1.80;;
72882;SDS011;61017;37.812;-122.286;2023-08-08T07:51:20;3.30;;;1.90;;
72882;SDS011;61017;37.812;-122.286;2023-08-08T07:52:52;3.83;;;2.03;;
72882;SDS011;61017;37.812;-122.286;2023-08-08T07:54:23;4.07;;;2.15;;
72882;SDS011;61017;37.812;-122.286;2023-08-08T07:55:55;3.50;;;2.03;;
72882;SDS011;61017;37.812;-122.286;2023-08-08T07:57:26;3.90;;;2.00;;
72882;SDS011;61017;37.812;-122.286;2023-08-08T07:58:58;3.53;;;1.80;;
72882;SDS011;61017;37.812;-122.286;2023-08-08T08:00:29;4.65;;;2.10;;
72882;SDS011;61017;37.812;-122.286;2023-08-08T08:02:01;3.33;;;1.90;;
72882;SDS011;61017;37.812;-122.286;2023-08-08T08:03:33;3.45;;;1.90;;
72882;SDS011;61017;37.812;-122.286;2023-08-08T08:05:05;4.38;;;2.05;;
72882;SDS011;61017;37.812;-122.286;2023-08-08T08:06:36;6.60;;;2.10;;
72882;SDS011;61017;37.812;-122.286;2023-08-08T08:08:08;2.88;;;1.90;;
72882;SDS011;61017;37.812;-122.286;2023-08-08T08:09:40;4.43;;;1.90;;
72882;SDS011;61017;37.812;-122.286;2023-08-08T08:11:11;3.30;;;2.10;;
72882;SDS011;61017;37.812;-122.286;2023-08-08T08:12:43;3.30;;;1.90;;
72882;SDS011;61017;37.812;-122.286;2023-08-08T08:14:14;3.85;;;2.10;;
72882;SDS011;61017;37.812;-122.286;2023-08-08T08:15:46;3.78;;;2.10;;
72882;SDS011;61017;37.812;-122.286;2023-08-08T08:17:17;5.07;;;2.17;;
72882;SDS011;61017;37.812;-122.286;2023-08-08T08:18:49;3.80;;;2.03;;
72882;SDS011;61017;37.812;-122.286;2023-08-08T08:20:20;3.70;;;2.10;;
72882;SDS011;61017;37.812;-122.286;2023-08-08T08:21:52;3.92;;;2.05;;
72882;SDS011;61017;37.812;-122.286;2023-08-08T08:23:24;3.75;;;2.17;;
72882;SDS011;61017;37.812;-122.286;2023-08-08T08:24:55;2.90;;;2.08;;
72882;SDS011;61017;37.812;-122.286;2023-08-08T08:26:27;3.25;;;2.22;;
72882;SDS011;61017;37.812;-122.286;2023-08-08T08:27:58;4.20;;;2.00;;
72882;SDS011;61017;37.812;-122.286;2023-08-08T08:29:30;4.03;;;2.17;;
72882;SDS011;61017;37.812;-122.286;2023-08-08T08:31:05;4.20;;;2.03;;
72882;SDS011;61017;37.812;-122.286;2023-08-08T08:32:38;3.20;;;2.00;;
72882;SDS011;61017;37.812;-122.286;2023-08-08T08:34:10;2.60;;;1.65;;
72882;SDS011;61017;37.812;-122.286;2023-08-08T08:35:42;4.20;;;2.20;;
72882;SDS011;61017;37.812;-122.286;2023-08-08T08:37:13;3.22;;;2.10;;
72882;SDS011;61017;37.812;-122.286;2023-08-08T08:38:45;2.83;;;1.80;;
72882;SDS011;61017;37.812;-122.286;2023-08-08T08:40:16;3.95;;;2.13;;
72882;SDS011;61017;37.812;-122.286;2023-08-08T08:41:49;4.30;;;1.98;;
72882;SDS011;61017;37.812;-122.286;2023-08-08T08:43:24;3.42;;;1.80;;
72882;SDS011;61017;37.812;-122.286;2023-08-08T08:44:57;3.28;;;1.90;;
72882;SDS011;61017;37.812;-122.286;2023-08-08T08:46:29;4.07;;;2.05;;
72882;SDS011;61017;37.812;-122.286;2023-08-08T08:48:01;4.00;;;2.00;;
72882;SDS011;61017;37.812;-122.286;2023-08-08T08:49:34;3.67;;;1.80;;
72882;SDS011;61017;37.812;-122.286;2023-08-08T08:51:09;3.20;;;1.90;;
72882;SDS011;61017;37.812;-122.286;2023-08-08T08:52:41;4.50;;;2.07;;
72882;SDS011;61017;37.812;-122.286;2023-08-08T08:54:14;5.28;;;2.25;;
72882;SDS011;61017;37.812;-122.286;2023-08-08T08:55:46;3.40;;;1.92;;
72882;SDS011;61017;37.812;-122.286;2023-08-08T08:57:20;3.85;;;1.90;;
72882;SDS011;61017;37.812;-122.286;2023-08-08T08:58:52;3.95;;;1.70;;